Time;durP1;ratioP1;P1;durP2;ratioP2;P2;SDS_P1;SDS_P2;PMS_P1;PMS_P2;Temp;Humidity;BMP_temperature;BMP_pressure;BME280_temperature;BME280_humidity;BME280_pressure;Samples;Min_cycle;Max_cycle;Signal;HPM_P1;HPM_P2
2022/10/06 00:02:15;;;;;;;1.40;0.52;;;;;;;13.62;61.25;101052.13;4859034;28;98535;-65
2022/10/06 00:04:42;;;;;;;1.35;0.57;;;;;;;13.76;61.39;101052.41;4870579;28;97981;-68
2022/10/06 00:07:08;;;;;;;1.80;0.50;;;;;;;13.89;61.05;101056.44;4873225;28;98209;-68
2022/10/06 00:09:34;;;;;;;2.20;0.50;;;;;;;14.00;61.21;101055.31;4855288;28;98093;-68
2022/10/06 00:12:01;;;;;;;1.77;0.45;;;;;;;14.10;61.04;101055.25;4853257;28;98066;-65
2022/10/06 00:14:27;;;;;;;2.15;0.52;;;;;;;14.19;60.88;101060.94;4869064;28;98401;-64
2022/10/06 00:16:53;;;;;;;0.88;0.32;;;;;;;14.27;61.32;101056.84;4867661;28;99029;-65
2022/10/06 00:19:19;;;;;;;1.30;0.40;;;;;;;14.34;60.89;101058.16;4878300;28;98126;-65
2022/10/06 00:21:48;;;;;;;4.03;0.60;;;;;;;14.38;61.34;101050.28;4873197;28;98071;-68
2022/10/06 00:24:15;;;;;;;2.80;0.40;;;;;;;14.45;61.31;101043.47;4873918;28;98447;-64
2022/10/06 00:26:41;;;;;;;1.35;0.50;;;;;;;14.51;60.89;101054.34;4862920;28;98001;-64
2022/10/06 00:29:08;;;;;;;1.08;0.50;;;;;;;14.57;60.82;101066.75;4853757;28;123380;-68
2022/10/06 00:31:35;;;;;;;1.13;0.50;;;;;;;14.64;61.01;101059.13;4870378;28;98328;-68
2022/10/06 00:34:01;;;;;;;1.30;0.50;;;;;;;14.66;60.93;101067.81;4896674;28;109176;-64
2022/10/06 00:36:27;;;;;;;1.95;0.50;;;;;;;14.70;60.76;101069.69;4880312;28;99596;-64
2022/10/06 00:38:53;;;;;;;1.08;0.35;;;;;;;14.75;61.18;101058.00;4861981;28;98004;-65
2022/10/06 00:41:21;;;;;;;1.33;0.40;;;;;;;14.79;61.16;101066.38;4869848;28;99762;-68
2022/10/06 00:43:51;;;;;;;0.82;0.22;;;;;;;14.84;60.88;101066.34;4905277;28;98289;-68
2022/10/06 00:46:32;;;;;;;1.08;0.40;;;;;;;14.89;61.02;101067.09;4899440;28;98416;-68
2022/10/06 00:49:09;;;;;;;1.17;0.32;;;;;;;14.93;60.95;101054.63;4894772;28;98326;-64
2022/10/06 00:51:40;;;;;;;0.82;0.22;;;;;;;14.98;60.76;101062.72;4893134;28;99602;-69
2022/10/06 00:54:06;;;;;;;1.73;0.38;;;;;;;15.02;61.13;101062.97;4860985;28;98234;-65
2022/10/06 00:56:33;;;;;;;1.20;0.40;;;;;;;15.09;61.16;101065.34;4856529;28;98320;-69
2022/10/06 00:59:00;;;;;;;1.98;0.45;;;;;;;15.13;61.14;101063.69;4869219;28;108491;-68
2022/10/06 01:01:27;;;;;;;4.70;0.40;;;;;;;15.18;60.96;101069.09;4869542;28;98338;-65
2022/10/06 01:03:57;;;;;;;0.90;0.20;;;;;;;15.23;60.52;101060.91;4856379;28;105484;-69
2022/10/06 01:06:23;;;;;;;2.88;0.40;;;;;;;15.32;60.82;101071.97;4868281;28;98088;-64
2022/10/06 01:08:49;;;;;;;0.90;0.30;;;;;;;15.36;60.78;101073.81;4885812;28;98511;-68
2022/10/06 01:11:16;;;;;;;1.20;0.40;;;;;;;15.42;60.73;101088.19;4879319;28;98074;-68
2022/10/06 01:13:43;;;;;;;0.80;0.30;;;;;;;15.44;60.73;101075.94;4865122;28;99653;-64
2022/10/06 01:16:21;;;;;;;1.40;0.40;;;;;;;15.50;60.57;101082.13;4883615;28;99449;-65
2022/10/06 01:18:49;;;;;;;1.67;0.40;;;;;;;15.55;60.99;101084.78;4889549;28;98179;-68
2022/10/06 01:21:45;;;;;;;2.80;0.40;;;;;;;15.56;60.07;101088.31;4886389;28;98050;-69
2022/10/06 01:24:11;;;;;;;1.38;0.40;;;;;;;15.62;60.51;101096.16;4885768;28;98085;-68
2022/10/06 01:26:41;;;;;;;1.85;0.28;;;;;;;15.63;60.27;101095.03;4886431;28;99034;-65
2022/10/06 01:29:07;;;;;;;1.20;0.52;;;;;;;15.64;60.52;101096.69;4867163;28;98170;-68
2022/10/06 01:31:33;;;;;;;1.98;0.20;;;;;;;15.66;60.60;101099.94;4878264;28;100112;-64
2022/10/06 01:33:59;;;;;;;1.20;0.40;;;;;;;15.67;60.59;101106.19;4871479;28;98672;-64
2022/10/06 01:36:25;;;;;;;2.67;0.40;;;;;;;15.68;60.44;101113.28;4883886;28;116812;-64
2022/10/06 01:38:51;;;;;;;4.22;0.30;;;;;;;15.70;60.33;101111.06;4868758;28;98284;-65
2022/10/06 01:41:18;;;;;;;1.10;0.20;;;;;;;15.70;60.49;101116.50;4869448;28;97997;-64
2022/10/06 01:43:46;;;;;;;2.88;0.40;;;;;;;15.70;60.39;101119.22;4860881;28;99826;-68
2022/10/06 01:46:14;;;;;;;0.70;0.30;;;;;;;15.69;60.55;101123.03;4885176;28;98087;-65
2022/10/06 01:48:40;;;;;;;1.42;0.40;;;;;;;15.69;60.42;101126.56;4875439;28;97875;-68
2022/10/06 01:51:08;;;;;;;1.83;0.40;;;;;;;15.68;60.68;101130.38;4866661;28;126692;-68
2022/10/06 01:53:34;;;;;;;1.05;0.40;;;;;;;15.68;60.61;101135.00;4879988;28;98421;-64
2022/10/06 01:56:00;;;;;;;1.10;0.30;;;;;;;15.69;60.46;101140.16;4867516;28;97854;-65
2022/10/06 01:58:26;;;;;;;0.77;0.30;;;;;;;15.69;60.59;101142.06;4870863;28;98200;-69
2022/10/06 02:00:53;;;;;;;1.60;0.45;;;;;;;15.68;60.78;101140.44;4861371;28;100067;-64
2022/10/06 02:03:19;;;;;;;1.83;0.40;;;;;;;15.67;60.76;101146.94;4859737;28;99669;-64
2022/10/06 02:05:45;;;;;;;1.95;0.50;;;;;;;15.66;60.57;101146.16;4868704;28;99779;-66
2022/10/06 02:08:11;;;;;;;2.35;0.40;;;;;;;15.65;60.63;101141.81;4885012;28;98521;-68
2022/10/06 02:10:38;;;;;;;1.30;0.40;;;;;;;15.64;60.60;101148.31;4863085;28;99366;-68
2022/10/06 02:13:04;;;;;;;1.55;0.50;;;;;;;15.62;60.77;101142.34;4870783;28;98172;-65
2022/10/06 02:15:32;;;;;;;2.00;0.40;;;;;;;15.62;60.58;101142.34;4886172;28;126760;-67
2022/10/06 02:17:58;;;;;;;1.90;0.40;;;;;;;15.60;60.94;101143.72;4860710;28;97942;-64
2022/10/06 02:20:24;;;;;;;2.17;0.65;;;;;;;15.61;60.86;101140.72;4871189;28;98442;-64
2022/10/06 02:22:50;;;;;;;1.35;0.50;;;;;;;15.61;60.79;101145.34;4868161;28;99562;-65
2022/10/06 02:25:17;;;;;;;3.70;0.43;;;;;;;15.61;61.20;101145.34;4896714;28;128812;-65
2022/10/06 02:27:43;;;;;;;5.05;0.47;;;;;;;15.62;60.71;101142.34;4880370;28;97867;-64
2022/10/06 02:30:13;;;;;;;0.75;0.30;;;;;;;15.61;60.68;101146.16;4847102;28;98650;-69
2022/10/06 02:32:41;;;;;;;1.38;0.40;;;;;;;15.63;60.96;101151.31;4902658;28;98402;-68
2022/10/06 02:35:09;;;;;;;0.80;0.30;;;;;;;15.64;60.77;101155.63;4866410;28;98157;-64
2022/10/06 02:37:35;;;;;;;0.85;0.38;;;;;;;15.64;60.59;101145.59;4871185;28;98127;-64
2022/10/06 02:40:01;;;;;;;1.05;0.35;;;;;;;15.65;60.63;101147.25;4886098;28;126798;-65
2022/10/06 02:42:27;;;;;;;1.00;0.38;;;;;;;15.67;60.68;101155.09;4868837;28;125848;-64
2022/10/06 02:44:53;;;;;;;1.75;0.40;;;;;;;15.68;60.96;101126.84;4868751;28;99288;-65
2022/10/06 02:47:21;;;;;;;1.08;0.20;;;;;;;15.71;60.78;101148.00;4892886;28;97904;-65
2022/10/06 02:49:48;;;;;;;1.65;0.40;;;;;;;15.70;60.78;101143.66;4881152;28;98348;-68
2022/10/06 02:52:15;;;;;;;3.70;0.40;;;;;;;15.71;60.87;101131.69;4860203;28;98203;-68
2022/10/06 02:54:41;;;;;;;0.73;0.28;;;;;;;15.71;61.01;101139.84;4859992;28;98348;-65
2022/10/06 02:57:08;;;;;;;1.40;0.40;;;;;;;15.71;60.65;101148.00;4865513;28;97986;-68
2022/10/06 02:59:35;;;;;;;1.23;0.30;;;;;;;15.70;60.79;101155.34;4873270;28;98130;-68
2022/10/06 03:02:01;;;;;;;2.22;0.40;;;;;;;15.72;60.87;101160.50;4868323;28;98018;-68
2022/10/06 03:04:27;;;;;;;2.28;0.43;;;;;;;15.71;60.95;101165.13;4862185;28;97936;-64
2022/10/06 03:06:55;;;;;;;0.88;0.30;;;;;;;15.71;60.90;101181.41;4863043;28;103135;-69
2022/10/06 03:09:21;;;;;;;2.40;0.35;;;;;;;15.70;60.81;101174.38;4864647;28;98194;-65
2022/10/06 03:11:47;;;;;;;1.27;0.25;;;;;;;15.70;60.71;101173.56;4900208;28;99752;-68
2022/10/06 03:14:14;;;;;;;0.93;0.30;;;;;;;15.70;60.80;101179.00;4878584;28;127638;-64
2022/10/06 03:16:41;;;;;;;1.85;0.30;;;;;;;15.70;60.73;101192.59;4866342;28;123588;-65
2022/10/06 03:19:08;;;;;;;0.85;0.30;;;;;;;15.68;60.74;101184.72;4867813;28;98009;-64
2022/10/06 03:21:37;;;;;;;0.88;0.38;;;;;;;15.68;60.81;101187.44;4867106;28;98124;-65
2022/10/06 03:24:03;;;;;;;1.63;0.43;;;;;;;15.69;61.20;101199.94;4879558;28;98117;-65
2022/10/06 03:26:40;;;;;;;2.67;0.32;;;;;;;15.66;60.74;101192.34;4862912;28;98205;-68
2022/10/06 03:29:07;;;;;;;1.15;0.40;;;;;;;15.66;60.75;101207.84;4843320;28;98070;-68
2022/10/06 03:31:33;;;;;;;0.47;0.20;;;;;;;15.67;61.43;101209.44;4863323;28;98038;-64
2022/10/06 03:34:00;;;;;;;1.30;0.30;;;;;;;15.66;60.76;101210.56;4883612;28;97803;-68
2022/10/06 03:36:32;;;;;;;2.88;0.50;;;;;;;15.65;60.54;101215.19;4867348;28;98241;-65
2022/10/06 03:38:58;;;;;;;3.20;0.40;;;;;;;15.66;60.93;101222.22;4864047;28;98024;-68
2022/10/06 03:41:26;;;;;;;1.40;0.50;;;;;;;15.66;60.98;101219.50;4878735;28;99265;-69
2022/10/06 03:43:54;;;;;;;1.73;0.55;;;;;;;15.66;61.04;101224.13;4854603;28;107859;-68
2022/10/06 03:46:22;;;;;;;0.95;0.40;;;;;;;15.65;60.96;101230.69;4851217;28;98036;-66
2022/10/06 03:48:50;;;;;;;1.17;0.30;;;;;;;15.65;60.97;101238.84;4887121;28;98558;-65
2022/10/06 03:51:26;;;;;;;3.70;0.50;;;;;;;15.63;60.90;101241.78;4861232;28;98052;-64
2022/10/06 03:53:52;;;;;;;1.30;0.20;;;;;;;15.64;61.23;101235.28;4840359;28;98539;-65
2022/10/06 03:56:27;;;;;;;0.98;0.30;;;;;;;15.64;60.84;101235.28;4856035;28;98102;-68
2022/10/06 03:58:56;;;;;;;1.35;0.35;;;;;;;15.67;60.83;101245.59;4856436;28;98084;-64
2022/10/06 04:01:28;;;;;;;1.10;0.40;;;;;;;15.68;60.56;101246.44;4879797;28;98110;-65
2022/10/06 04:03:56;;;;;;;0.63;0.20;;;;;;;15.69;61.04;101253.47;4871668;28;99519;-68
2022/10/06 04:06:24;;;;;;;1.10;0.30;;;;;;;15.71;60.49;101256.72;4866050;28;98527;-69
2022/10/06 04:08:51;;;;;;;2.25;0.45;;;;;;;15.72;60.99;101255.63;4845520;28;98494;-64
2022/10/06 04:11:23;;;;;;;0.85;0.40;;;;;;;15.74;60.68;101256.16;4853133;28;97848;-69
2022/10/06 04:13:59;;;;;;;2.20;0.40;;;;;;;15.74;60.62;101263.50;4872446;28;97924;-67
2022/10/06 04:16:30;;;;;;;1.23;0.45;;;;;;;15.76;61.19;101266.72;4880012;28;98116;-65
2022/10/06 04:19:01;;;;;;;3.28;0.38;;;;;;;15.78;60.88;101267.28;4856163;28;98240;-65
2022/10/06 04:21:29;;;;;;;0.68;0.25;;;;;;;15.78;61.03;101276.22;4880662;28;98100;-69
2022/10/06 04:23:57;;;;;;;1.33;0.40;;;;;;;15.80;60.82;101268.63;4909897;28;98101;-68
2022/10/06 04:26:29;;;;;;;2.45;0.40;;;;;;;15.84;61.02;101285.19;4841267;28;98249;-64
2022/10/06 04:28:56;;;;;;;1.35;0.40;;;;;;;15.85;60.71;101281.38;4866611;28;100068;-64
2022/10/06 04:31:24;;;;;;;1.23;0.47;;;;;;;15.85;60.84;101276.72;4880273;28;98288;-65
2022/10/06 04:33:55;;;;;;;2.10;0.30;;;;;;;15.87;60.69;101284.59;4870361;28;98097;-64
2022/10/06 04:36:26;;;;;;;2.88;0.45;;;;;;;15.89;60.67;101282.41;4852086;28;98011;-64
2022/10/06 04:38:57;;;;;;;0.98;0.40;;;;;;;15.90;60.81;101278.59;4902606;28;100384;-68
2022/10/06 04:41:27;;;;;;;1.80;0.28;;;;;;;15.93;60.90;101280.75;4875247;28;98582;-64
2022/10/06 04:43:56;;;;;;;1.00;0.40;;;;;;;15.92;61.13;101285.38;4889463;28;98275;-68
2022/10/06 04:46:24;;;;;;;1.05;0.40;;;;;;;15.95;60.71;101287.53;4866700;28;98408;-64
2022/10/06 04:48:51;;;;;;;0.68;0.30;;;;;;;15.98;60.96;101288.06;4854495;28;110889;-66
2022/10/06 04:51:17;;;;;;;1.17;0.25;;;;;;;15.98;60.87;101288.06;4873709;28;98300;-65
2022/10/06 04:53:44;;;;;;;4.40;0.40;;;;;;;16.00;60.86;101297.56;4860485;28;98366;-69
2022/10/06 04:56:14;;;;;;;0.70;0.30;;;;;;;16.01;60.88;101299.19;4867498;28;98226;-68
2022/10/06 04:58:43;;;;;;;1.17;0.30;;;;;;;16.02;60.89;101302.72;4877427;28;98293;-64
2022/10/06 05:01:17;;;;;;;0.93;0.22;;;;;;;16.00;60.69;101297.56;4865194;28;97850;-69
2022/10/06 05:03:44;;;;;;;0.77;0.30;;;;;;;16.07;60.92;101305.38;4882090;28;97927;-64
2022/10/06 05:06:16;;;;;;;1.58;0.35;;;;;;;16.12;60.87;101316.25;4870221;28;98869;-69
2022/10/06 05:08:46;;;;;;;2.70;0.35;;;;;;;16.18;60.64;101320.53;4883463;28;97926;-64
2022/10/06 05:11:12;;;;;;;1.77;0.40;;;;;;;16.24;61.03;101330.28;4880575;28;107304;-68
2022/10/06 05:13:39;;;;;;;1.25;0.47;;;;;;;16.32;60.55;101350.63;4864422;28;98382;-68
2022/10/06 05:16:09;;;;;;;1.20;0.32;;;;;;;16.36;60.66;101354.41;4879239;28;98136;-68
2022/10/06 05:18:36;;;;;;;0.88;0.30;;;;;;;16.40;60.75;101358.19;4899514;28;98222;-68
2022/10/06 05:21:10;;;;;;;0.85;0.35;;;;;;;16.44;60.76;101370.91;4859670;28;97971;-64
2022/10/06 05:23:38;;;;;;;1.00;0.30;;;;;;;16.45;60.84;101383.41;4865573;28;105815;-64
2022/10/06 05:26:06;;;;;;;2.38;0.60;;;;;;;16.51;60.94;101405.16;4856182;28;97990;-64
2022/10/06 05:28:32;;;;;;;1.85;0.52;;;;;;;16.52;60.61;101410.31;4853281;28;98105;-65
2022/10/06 05:31:05;;;;;;;0.60;0.20;;;;;;;16.57;60.47;101415.72;4869657;28;98078;-65
2022/10/06 05:33:34;;;;;;;1.33;0.20;;;;;;;16.60;60.52;101428.75;4870687;28;98291;-64
2022/10/06 05:36:05;;;;;;;0.55;0.17;;;;;;;16.61;60.08;101424.94;4859927;28;99473;-65
2022/10/06 05:38:32;;;;;;;1.35;0.22;;;;;;;16.63;60.13;101438.28;4881544;28;98304;-65
2022/10/06 05:41:16;;;;;;;0.80;0.20;;;;;;;16.62;59.95;101442.06;4864263;28;98728;-65
2022/10/06 05:43:43;;;;;;;0.88;0.20;;;;;;;16.65;59.83;101446.94;4890918;28;98442;-64
2022/10/06 05:46:22;;;;;;;0.50;0.17;;;;;;;16.64;59.65;101454.31;4876032;28;98466;-69
2022/10/06 05:48:54;;;;;;;0.65;0.20;;;;;;;16.64;59.41;101462.47;4868544;28;98152;-70
2022/10/06 05:51:22;;;;;;;1.52;0.17;;;;;;;16.64;59.37;101462.47;4869932;28;98818;-69
2022/10/06 05:53:49;;;;;;;0.30;0.10;;;;;;;16.62;59.43;101475.56;4868464;28;98275;-69
2022/10/06 05:56:18;;;;;;;0.40;0.10;;;;;;;16.62;59.16;101470.13;4858243;28;98304;-69
2022/10/06 05:58:47;;;;;;;0.47;0.10;;;;;;;16.61;58.99;101467.66;4865116;28;98841;-69
2022/10/06 06:01:19;;;;;;;0.28;0.10;;;;;;;16.61;58.85;101486.72;4860442;28;99449;-69
2022/10/06 06:03:58;;;;;;;0.43;0.10;;;;;;;16.56;58.98;101487.56;4880881;28;98242;-68
2022/10/06 06:06:29;;;;;;;0.30;0.10;;;;;;;16.59;58.69;101506.06;4880908;28;98592;-65
2022/10/06 06:09:00;;;;;;;0.30;0.10;;;;;;;16.56;58.43;101505.81;4873416;28;98342;-65
2022/10/06 06:11:30;;;;;;;2.90;0.10;;;;;;;16.54;58.26;101516.97;4839991;28;100874;-65
2022/10/06 06:14:16;;;;;;;1.15;0.10;;;;;;;16.53;57.99;101528.97;4871314;28;99051;-65
2022/10/06 06:16:43;;;;;;;2.03;0.10;;;;;;;16.50;57.99;101537.69;4862310;28;98205;-65
2022/10/06 06:19:15;;;;;;;0.43;0.10;;;;;;;16.49;57.81;101544.22;4872729;28;100482;-65
2022/10/06 06:21:43;;;;;;;1.75;0.20;;;;;;;16.47;57.83;101540.97;4868858;28;98573;-68
2022/10/06 06:24:09;;;;;;;1.35;0.10;;;;;;;16.46;57.64;101544.78;4841788;28;97955;-64
2022/10/06 06:26:36;;;;;;;2.38;0.00;;;;;;;16.43;57.53;101558.97;4858062;28;97955;-65
2022/10/06 06:29:03;;;;;;;0.45;0.10;;;;;;;16.42;57.51;101576.38;4858810;28;100199;-68
2022/10/06 06:31:32;;;;;;;0.30;0.00;;;;;;;16.36;57.50;101572.88;4848700;28;98481;-65
2022/10/06 06:34:01;;;;;;;0.08;0.00;;;;;;;16.33;57.16;101586.22;4881506;28;99572;-68
2022/10/06 06:36:34;;;;;;;0.73;0.00;;;;;;;16.26;57.03;101589.22;4871192;28;97991;-65
2022/10/06 06:39:07;;;;;;;0.52;0.10;;;;;;;16.20;57.32;101596.59;4861232;28;98106;-69
2022/10/06 06:41:36;;;;;;;;;;;;;;;16.08;57.67;101611.59;4871246;28;97897;-65
2022/10/06 06:44:03;;;;;;;0.10;0.00;;;;;;;16.11;57.15;101619.19;4912734;28;97771;-68
2022/10/06 06:46:32;;;;;;;0.10;0.00;;;;;;;16.07;57.34;101626.28;4902964;28;105923;-68
2022/10/06 06:49:03;;;;;;;0.25;0.00;;;;;;;16.06;57.06;101630.91;4885065;28;98158;-65
2022/10/06 06:51:36;;;;;;;0.20;0.00;;;;;;;16.03;57.00;101628.72;4843843;28;98012;-69
2022/10/06 06:54:05;;;;;;;0.73;0.00;;;;;;;16.01;56.94;101635.56;4902503;28;100796;-64
2022/10/06 06:56:35;;;;;;;0.32;0.00;;;;;;;16.03;56.85;101641.50;4871574;28;97979;-68
2022/10/06 06:59:10;;;;;;;0.00;0.00;;;;;;;16.02;56.60;101650.78;4862888;28;98633;-69
2022/10/06 07:01:38;;;;;;;0.20;0.00;;;;;;;16.02;56.86;101651.56;4862828;28;98579;-68
2022/10/06 07:04:05;;;;;;;0.73;0.00;;;;;;;16.02;56.65;101651.56;4864497;28;98145;-64
2022/10/06 07:06:35;;;;;;;0.05;0.00;;;;;;;16.01;56.56;101660.03;4860123;28;98180;-68
2022/10/06 07:09:01;;;;;;;0.10;0.00;;;;;;;16.02;56.53;101673.34;4846170;28;100220;-65
2022/10/06 07:11:29;;;;;;;1.10;0.00;;;;;;;16.04;56.04;101673.88;4867951;28;129170;-65
2022/10/06 07:14:00;;;;;;;0.75;0.00;;;;;;;16.04;56.32;101698.38;4841201;28;100081;-68
2022/10/06 07:25:06;;;;;;;1.10;0.00;;;;;;;15.96;56.33;101720.69;4873563;28;98101;-68
2022/10/06 07:27:46;;;;;;;0.52;0.00;;;;;;;15.98;56.24;101729.34;4890131;28;98073;-68
2022/10/06 07:30:21;;;;;;;0.40;0.00;;;;;;;15.96;56.18;101734.28;4864508;28;99323;-65
2022/10/06 07:32:49;;;;;;;0.88;0.08;;;;;;;15.95;56.13;101729.91;4843517;28;98122;-65
2022/10/06 07:35:16;;;;;;;0.82;0.00;;;;;;;16.01;56.14;101730.72;4852843;28;98554;-67
2022/10/06 07:37:42;;;;;;;0.35;0.00;;;;;;;16.10;55.80;101732.59;4861272;28;98559;-68
2022/10/06 07:40:10;;;;;;;0.30;0.00;;;;;;;16.15;55.93;101739.94;4859637;28;98143;-70
2022/10/06 07:42:47;;;;;;;1.17;0.00;;;;;;;16.24;55.85;101741.03;4862645;28;97889;-64
2022/10/06 07:48:13;;;;;;;0.28;0.00;;;;;;;16.26;55.85;101749.72;4869954;28;98204;-68
2022/10/06 07:50:40;;;;;;;0.20;0.00;;;;;;;16.26;55.89;101755.16;4891730;28;98564;-68
2022/10/06 07:53:08;;;;;;;0.10;0.00;;;;;;;16.33;55.93;101757.63;4847185;28;98037;-65
2022/10/06 07:55:43;;;;;;;0.13;0.00;;;;;;;16.39;55.70;101761.97;4842792;28;98198;-64
2022/10/06 07:58:17;;;;;;;0.63;0.00;;;;;;;16.51;55.47;101759.75;4867581;28;98345;-64
2022/10/06 08:00:44;;;;;;;0.17;0.00;;;;;;;16.63;55.33;101756.75;4874096;28;98175;-68
2022/10/06 08:03:13;;;;;;;1.05;0.10;;;;;;;16.63;55.26;101765.72;4857498;28;98125;-68
2022/10/06 08:05:39;;;;;;;0.32;0.00;;;;;;;16.59;55.19;101770.09;4878169;28;97920;-64
2022/10/06 08:08:05;;;;;;;0.17;0.00;;;;;;;16.63;55.30;101773.88;4881207;28;122363;-65
2022/10/06 08:10:32;;;;;;;0.60;0.00;;;;;;;16.72;55.69;101786.91;4861378;28;98665;-68
2022/10/06 08:12:58;;;;;;;0.80;0.00;;;;;;;16.76;55.34;101802.44;4898027;28;98572;-68
2022/10/06 08:15:24;;;;;;;1.20;0.10;;;;;;;16.79;55.34;101798.38;4858704;28;98219;-68
2022/10/06 08:17:52;;;;;;;0.82;0.00;;;;;;;16.78;55.63;101799.44;4860287;28;97962;-64
2022/10/06 08:20:19;;;;;;;0.65;0.00;;;;;;;16.86;55.55;101805.16;4879474;28;98530;-64
2022/10/06 08:22:48;;;;;;;2.05;0.10;;;;;;;17.02;54.96;101803.19;4855887;28;98089;-68
2022/10/06 08:25:15;;;;;;;1.45;0.10;;;;;;;17.05;55.20;101809.97;4877541;28;98336;-68
2022/10/06 08:27:43;;;;;;;0.10;0.00;;;;;;;17.05;55.29;101812.69;4866910;28;98072;-68
2022/10/06 08:30:11;;;;;;;0.40;0.10;;;;;;;17.16;55.07;101817.00;4869621;28;98757;-68
2022/10/06 08:32:38;;;;;;;0.88;0.17;;;;;;;17.30;54.98;101815.34;4866228;28;100009;-68
2022/10/06 08:35:05;;;;;;;0.40;0.10;;;;;;;17.38;54.81;101822.09;4864551;28;98280;-68
2022/10/06 08:37:31;;;;;;;1.70;0.00;;;;;;;17.41;54.79;101830.53;4879404;28;98089;-68
2022/10/06 08:39:58;;;;;;;1.55;0.00;;;;;;;17.47;54.73;101825.88;4882637;28;100105;-68
2022/10/06 08:42:40;;;;;;;0.40;0.00;;;;;;;17.56;54.52;101834.25;4861535;28;99305;-68
2022/10/06 08:45:35;;;;;;;3.22;0.08;;;;;;;17.63;54.48;101821.94;4876350;28;98217;-68
2022/10/06 08:48:17;;;;;;;1.33;0.00;;;;;;;17.75;54.49;101821.63;4879772;28;97917;-68
2022/10/06 08:51:21;;;;;;;0.73;0.10;;;;;;;17.86;54.24;101842.28;4888391;28;98222;-69
2022/10/06 08:54:28;;;;;;;1.17;0.08;;;;;;;17.87;54.21;101845.81;4878166;28;99182;-69
2022/10/06 08:57:07;;;;;;;0.95;0.10;;;;;;;18.00;53.89;101853.38;4883570;28;98365;-65
2022/10/06 08:59:35;;;;;;;0.20;0.00;;;;;;;18.09;53.78;101853.59;4884897;28;97981;-64
2022/10/06 09:02:05;;;;;;;1.05;0.10;;;;;;;18.23;53.82;101856.47;4866484;28;98553;-65
2022/10/06 09:04:32;;;;;;;0.80;0.10;;;;;;;18.47;53.29;101856.53;4865483;28;99280;-64
2022/10/06 09:07:03;;;;;;;1.73;0.20;;;;;;;20.33;50.33;101850.09;4879314;28;98003;-65
2022/10/06 09:10:09;;;;;;;0.70;0.10;;;;;;;24.69;44.26;101848.47;4883635;28;98130;-65
2022/10/06 09:12:50;;;;;;;1.17;0.00;;;;;;;27.65;41.15;101877.69;4860883;28;99024;-65
2022/10/06 09:15:39;;;;;;;;;;;;;;;27.06;43.34;101874.63;4893597;28;98050;-65
2022/10/06 09:18:21;;;;;;;1.05;0.10;;;;;;;27.12;42.68;101878.81;4910773;28;98192;-69
2022/10/06 09:21:16;;;;;;;1.13;0.17;;;;;;;31.18;37.84;101883.41;4875774;28;97843;-69
2022/10/06 09:23:49;;;;;;;0.50;0.10;;;;;;;30.41;37.98;101876.91;4859890;28;98657;-69
2022/10/06 09:26:21;;;;;;;0.63;0.10;;;;;;;29.28;38.99;101881.69;4849662;28;98879;-69
2022/10/06 09:28:50;;;;;;;1.38;0.10;;;;;;;28.95;39.53;101879.28;4866535;28;98112;-69
2022/10/06 09:31:30;;;;;;;1.20;0.00;;;;;;;26.71;42.80;101880.59;4859430;28;98049;-70
2022/10/06 09:34:25;;;;;;;3.25;0.10;;;;;;;25.07;44.82;101877.97;4879314;28;99104;-69
2022/10/06 09:37:01;;;;;;;1.58;0.10;;;;;;;24.28;45.41;101879.31;4885155;28;98214;-69
2022/10/06 09:39:32;;;;;;;1.42;0.08;;;;;;;23.42;45.25;101872.66;4871754;28;98342;-69
2022/10/06 09:42:02;;;;;;;1.10;0.10;;;;;;;22.77;46.09;101876.91;4875591;28;98584;-69
2022/10/06 09:44:43;;;;;;;0.20;0.00;;;;;;;22.25;46.25;101879.38;4860767;28;98726;-69
2022/10/06 09:47:44;;;;;;;;;;;;;;;22.29;47.31;101876.81;4872225;28;98309;-69
2022/10/06 09:50:19;;;;;;;2.78;0.05;;;;;;;22.03;46.35;101884.81;4879149;28;99248;-69
2022/10/06 09:53:00;;;;;;;1.48;0.17;;;;;;;21.61;47.32;101888.78;4879187;28;98062;-69
2022/10/06 09:55:51;;;;;;;1.55;0.00;;;;;;;22.16;45.76;101886.69;4888532;28;98267;-65
2022/10/06 09:58:28;;;;;;;1.00;0.17;;;;;;;21.54;47.03;101886.47;4872691;28;98059;-65
2022/10/06 10:00:58;;;;;;;0.63;0.00;;;;;;;21.87;45.84;101887.09;4850076;28;99348;-65
2022/10/06 10:03:25;;;;;;;0.75;0.10;;;;;;;22.06;45.30;101900.66;4855149;28;98180;-65
2022/10/06 10:05:55;;;;;;;0.45;0.10;;;;;;;22.46;44.84;101896.13;4845986;28;98594;-65
2022/10/06 10:08:31;;;;;;;0.22;0.03;;;;;;;23.10;44.20;101900.53;4859190;28;98388;-65
2022/10/06 10:12:23;;;;;;;1.13;0.25;;;;;;;23.72;43.53;101898.44;4872353;28;98140;-65
2022/10/06 10:13:57;;;;;;;0.30;0.05;;;;;;;23.84;42.85;101905.25;4898221;28;98007;-65
2022/10/06 10:16:27;;;;;;;3.90;0.10;;;;;;;24.27;42.56;101910.75;4873860;28;98446;-65
2022/10/06 10:18:53;;;;;;;0.50;0.10;;;;;;;24.21;42.53;101903.81;4880227;28;98186;-67
2022/10/06 10:21:28;;;;;;;1.40;0.00;;;;;;;23.69;43.71;101906.53;4861688;28;97994;-69
2022/10/06 10:24:05;;;;;;;0.20;0.00;;;;;;;23.42;44.08;101915.84;4877076;28;98534;-70
2022/10/06 10:26:56;;;;;;;2.33;0.05;;;;;;;23.68;43.60;101913.97;4864806;28;98029;-69
2022/10/06 10:29:44;;;;;;;0.80;0.20;;;;;;;24.54;42.59;101911.56;4869654;28;97893;-69
2022/10/06 10:32:50;;;;;;;0.13;0.00;;;;;;;25.03;42.30;101915.63;4876553;28;98457;-69
2022/10/06 10:35:47;;;;;;;0.20;0.00;;;;;;;25.46;42.24;101922.91;4872295;28;97889;-69
2022/10/06 10:38:20;;;;;;;2.00;0.10;;;;;;;25.48;41.94;101923.38;4872450;28;98285;-69
2022/10/06 10:40:54;;;;;;;1.55;0.10;;;;;;;25.90;40.65;101920.72;4857423;28;100116;-65
2022/10/06 10:43:50;;;;;;;0.25;0.00;;;;;;;25.87;41.82;101936.00;4879957;28;109530;-66
2022/10/06 10:46:40;;;;;;;0.30;0.00;;;;;;;25.09;41.63;101932.81;4891079;28;98744;-69
2022/10/06 10:49:15;;;;;;;0.25;0.00;;;;;;;24.34;42.81;101932.31;4856120;28;111117;-65
2022/10/06 10:52:02;;;;;;;0.85;0.00;;;;;;;23.68;43.42;101933.25;4863140;28;100815;-69
2022/10/06 10:55:03;;;;;;;0.63;0.10;;;;;;;23.05;44.22;101934.47;4878351;28;98258;-69
2022/10/06 10:57:39;;;;;;;0.28;0.00;;;;;;;22.50;44.23;101927.34;4877855;28;98093;-65
2022/10/06 11:00:21;;;;;;;0.20;0.00;;;;;;;22.40;44.15;101924.88;4869906;28;98492;-69
2022/10/06 11:02:50;;;;;;;1.35;0.10;;;;;;;21.91;44.33;101925.72;4843216;28;98473;-69
2022/10/06 11:05:50;;;;;;;1.13;0.10;;;;;;;22.21;44.06;101924.25;4845944;28;100256;-65
2022/10/06 11:08:45;;;;;;;1.17;0.10;;;;;;;23.54;42.11;101924.31;4908222;28;98251;-65
2022/10/06 11:11:33;;;;;;;2.05;0.10;;;;;;;23.64;41.88;101925.94;4873666;28;100052;-69
2022/10/06 11:14:00;;;;;;;0.77;0.05;;;;;;;22.71;42.63;101935.06;4878444;28;98760;-65
2022/10/06 11:16:51;;;;;;;0.77;0.10;;;;;;;22.66;43.37;101930.50;4843743;28;98415;-68
2022/10/06 11:19:46;;;;;;;1.30;0.00;;;;;;;22.33;43.60;101934.66;4880798;28;98376;-69
2022/10/06 11:22:30;;;;;;;0.25;0.05;;;;;;;21.90;43.85;101938.63;4874776;28;98057;-65
2022/10/06 11:25:27;;;;;;;0.30;0.00;;;;;;;21.61;43.82;101938.97;4886037;28;98171;-65
2022/10/06 11:28:01;;;;;;;0.90;0.00;;;;;;;21.57;43.65;101935.22;4867727;28;98255;-68
2022/10/06 11:30:29;;;;;;;0.30;0.00;;;;;;;22.20;42.29;101939.06;4861874;28;98117;-68
2022/10/06 11:33:00;;;;;;;0.38;0.03;;;;;;;22.46;41.97;101936.53;4864184;28;98284;-65
2022/10/06 11:35:35;;;;;;;0.30;0.00;;;;;;;22.00;42.71;101943.06;4888600;28;98262;-69
2022/10/06 11:38:07;;;;;;;1.20;0.10;;;;;;;23.14;41.59;101934.50;4870893;28;99160;-65
2022/10/06 11:41:00;;;;;;;1.92;0.10;;;;;;;22.36;42.22;101945.84;4889170;28;97983;-65
2022/10/06 11:44:03;;;;;;;0.20;0.10;;;;;;;24.26;40.01;101939.44;4906900;28;100298;-69
2022/10/06 11:46:57;;;;;;;0.40;0.10;;;;;;;24.59;40.07;101958.25;4896184;28;98436;-69
2022/10/06 11:49:29;;;;;;;0.50;0.10;;;;;;;24.49;40.27;101938.16;4880542;28;100184;-65
2022/10/06 11:52:10;;;;;;;0.60;0.00;;;;;;;24.39;40.17;101937.69;4904231;28;98337;-69
2022/10/06 11:54:53;;;;;;;1.00;0.00;;;;;;;24.30;40.02;101943.16;4898252;28;98199;-69
2022/10/06 11:57:22;;;;;;;0.70;0.00;;;;;;;24.15;40.20;101936.22;4888223;28;97962;-69
2022/10/06 12:00:16;;;;;;;0.68;0.10;;;;;;;23.99;40.69;101946.09;4884842;28;98151;-69